Time;durP1;ratioP1;P1;durP2;ratioP2;P2;SDS_P1;SDS_P2;PMS_P1;PMS_P2;Temp;Humidity;BMP_temperature;BMP_pressure;BME280_temperature;BME280_humidity;BME280_pressure;Samples;Min_cycle;Max_cycle;Signal;HPM_P1;HPM_P2
2021/05/01 00:00:25;;;;;;;21.30;13.50;;;;;;;8.05;67.77;98012.72;126175;1101;22775;-78
2021/05/01 00:03:13;;;;;;;23.00;14.13;;;;;;;8.05;68.07;98007.30;126230;1101;22772;-78
2021/05/01 00:05:40;;;;;;;20.95;14.25;;;;;;;8.02;68.50;98015.90;125952;1102;24456;-78
2021/05/01 00:08:07;;;;;;;22.15;12.85;;;;;;;7.98;68.44;98016.40;126196;1097;26263;-78
2021/05/01 00:10:34;;;;;;;19.23;14.10;;;;;;;7.92;68.53;98009.20;125970;1101;22744;-77
2021/05/01 00:13:01;;;;;;;19.33;13.87;;;;;;;7.87;69.69;98009.09;125935;1103;22744;-78
2021/05/01 00:15:28;;;;;;;23.30;14.80;;;;;;;7.83;68.88;98001.70;126160;1101;22819;-78
2021/05/01 00:17:56;;;;;;;19.90;13.10;;;;;;;7.83;68.84;98001.70;125922;1102;22736;-78
2021/05/01 00:20:23;;;;;;;18.87;12.50;;;;;;;7.83;69.65;98007.94;126284;1096;26194;-78
2021/05/01 00:22:50;;;;;;;17.47;13.33;;;;;;;7.80;69.64;98005.69;126009;1101;22906;-78
2021/05/01 00:25:17;;;;;;;20.87;14.33;;;;;;;7.79;69.89;98001.31;125933;1097;22751;-78
2021/05/01 00:27:44;;;;;;;19.93;14.50;;;;;;;7.79;69.94;97993.19;126296;1101;22771;-78
2021/05/01 00:30:12;;;;;;;21.40;12.87;;;;;;;7.79;70.27;98001.31;126201;1096;22751;-78
2021/05/01 00:32:39;;;;;;;20.15;14.40;;;;;;;7.80;69.93;98001.08;126198;1096;25960;-78
2021/05/01 00:35:07;;;;;;;24.20;16.20;;;;;;;7.83;69.84;98002.52;126291;1101;23037;-78
2021/05/01 00:37:34;;;;;;;19.53;14.07;;;;;;;7.87;69.82;97997.44;126124;1101;22804;-78
2021/05/01 00:40:01;;;;;;;19.70;13.73;;;;;;;7.88;69.83;98005.33;126290;1101;22819;-78
2021/05/01 00:42:28;;;;;;;19.35;13.55;;;;;;;7.88;70.28;98004.48;125984;1101;22790;-78
2021/05/01 00:44:55;;;;;;;18.10;12.67;;;;;;;7.88;70.01;98010.75;126163;1101;22776;-78
2021/05/01 00:47:22;;;;;;;23.00;14.70;;;;;;;7.88;70.43;98021.60;126255;1101;22812;-78
2021/05/01 00:49:50;;;;;;;18.97;14.47;;;;;;;7.89;70.01;98042.20;126154;1097;22775;-78
2021/05/01 00:52:17;;;;;;;20.53;13.50;;;;;;;7.89;70.18;98042.20;126016;1096;25881;-78
2021/05/01 00:54:44;;;;;;;21.70;15.95;;;;;;;7.88;70.06;98051.42;126018;1101;23818;-78
2021/05/01 00:57:11;;;;;;;20.43;15.40;;;;;;;7.90;70.03;98059.32;126002;1103;22748;-78
2021/05/01 00:59:38;;;;;;;23.53;15.53;;;;;;;7.92;70.32;98063.43;126121;1101;22876;-78
2021/05/01 01:02:05;;;;;;;21.25;13.80;;;;;;;7.94;69.58;98057.77;126001;1096;27199;-78
2021/05/01 01:04:33;;;;;;;21.77;14.93;;;;;;;7.94;70.02;98052.34;126385;1101;22773;-78
2021/05/01 01:07:00;;;;;;;21.57;15.60;;;;;;;7.95;69.62;98037.72;126014;1096;25967;-78
2021/05/01 01:09:27;;;;;;;25.55;16.35;;;;;;;7.93;70.09;98039.84;125896;1101;22745;-78
2021/05/01 01:11:54;;;;;;;24.50;15.97;;;;;;;7.94;69.85;98044.22;126179;1101;22734;-78
2021/05/01 01:14:21;;;;;;;24.60;15.90;;;;;;;7.92;69.78;98035.50;126194;1096;22765;-78
2021/05/01 01:16:48;;;;;;;22.90;16.20;;;;;;;7.90;69.95;98034.92;126250;1101;22906;-78
2021/05/01 01:19:16;;;;;;;24.15;16.55;;;;;;;7.89;69.84;98041.39;126168;1101;22745;-78
2021/05/01 01:21:47;;;;;;;22.30;15.47;;;;;;;7.88;69.97;98023.46;126143;1096;27122;-78
2021/05/01 01:24:15;;;;;;;20.10;14.50;;;;;;;7.85;69.75;98026.67;126208;1101;22816;-78
2021/05/01 01:26:43;;;;;;;21.50;15.75;;;;;;;7.84;69.84;98022.30;126406;1101;22744;-78
2021/05/01 01:29:13;;;;;;;22.87;16.43;;;;;;;7.81;69.61;98034.45;126083;1103;22734;-78
2021/05/01 01:31:42;;;;;;;23.87;14.73;;;;;;;7.76;70.43;98027.03;126136;1101;24189;-78
2021/05/01 01:34:10;;;;;;;22.03;15.43;;;;;;;7.72;70.16;98028.58;125990;1101;22799;-78
2021/05/01 01:36:37;;;;;;;21.73;16.57;;;;;;;7.68;69.90;98016.53;126217;1096;22770;-78
2021/05/01 01:39:05;;;;;;;25.43;16.33;;;;;;;7.65;70.46;98014.33;126249;1101;23657;-78
2021/05/01 01:41:32;;;;;;;21.25;15.55;;;;;;;7.63;70.19;98005.58;126375;1101;22745;-78
2021/05/01 01:43:59;;;;;;;20.77;15.33;;;;;;;7.59;70.36;98004.41;126257;1101;24588;-78
2021/05/01 01:46:26;;;;;;;20.65;15.50;;;;;;;7.57;70.23;98003.83;126237;1096;25891;-78
2021/05/01 01:48:53;;;;;;;21.50;15.60;;;;;;;7.53;70.41;97991.83;126173;1095;27148;-78
2021/05/01 01:51:20;;;;;;;21.40;16.10;;;;;;;7.50;70.17;97993.11;126186;1096;22785;-78
2021/05/01 01:53:47;;;;;;;23.97;16.00;;;;;;;7.47;70.82;97995.47;126210;1101;22740;-78
2021/05/01 01:56:14;;;;;;;26.70;16.60;;;;;;;7.41;71.18;98003.47;126219;1101;22820;-77
2021/05/01 01:58:41;;;;;;;24.55;16.70;;;;;;;7.39;70.67;98007.49;125969;1101;22812;-78
2021/05/01 02:01:10;;;;;;;20.47;15.40;;;;;;;7.36;71.08;98006.06;126239;1101;24377;-78
2021/05/01 02:03:39;;;;;;;22.78;16.08;;;;;;;7.36;70.95;98008.77;126268;1101;22758;-77
2021/05/01 02:06:06;;;;;;;21.90;14.90;;;;;;;7.33;71.21;98011.13;125954;1095;27144;-78
2021/05/01 02:08:33;;;;;;;21.00;15.35;;;;;;;7.28;71.32;98011.85;126306;1101;22734;-78
2021/05/01 02:11:00;;;;;;;21.40;15.70;;;;;;;7.28;71.15;98021.84;126148;1101;22906;-78
2021/05/01 02:13:27;;;;;;;21.40;15.47;;;;;;;7.25;71.63;98020.44;126253;1101;22809;-80
2021/05/01 02:15:54;;;;;;;24.35;16.30;;;;;;;7.25;70.96;98025.85;126095;1096;27116;-78
2021/05/01 02:18:21;;;;;;;22.30;15.57;;;;;;;7.26;71.67;98024.81;126072;1101;22747;-78
2021/05/01 02:20:48;;;;;;;21.87;15.77;;;;;;;7.29;71.33;98021.61;126074;1101;22907;-78
2021/05/01 02:23:16;;;;;;;23.90;15.25;;;;;;;7.35;71.47;98004.44;126049;1101;22761;-78
2021/05/01 02:25:43;;;;;;;23.27;15.93;;;;;;;7.39;71.57;98010.20;126038;1101;22810;-78
2021/05/01 02:28:10;;;;;;;21.90;16.00;;;;;;;7.42;71.59;98009.73;126112;1101;22744;-78
2021/05/01 02:30:37;;;;;;;21.95;16.65;;;;;;;7.46;71.68;98012.80;126072;1101;24411;-78
2021/05/01 02:33:04;;;;;;;22.95;15.70;;;;;;;7.48;71.81;98010.67;126011;1101;22744;-78
2021/05/01 02:35:34;;;;;;;22.10;15.57;;;;;;;7.49;71.91;98012.31;125809;1096;22744;-78
2021/05/01 02:38:02;;;;;;;23.38;16.28;;;;;;;7.52;71.78;98014.55;125914;1096;22926;-78
2021/05/01 02:40:31;;;;;;;22.37;15.93;;;;;;;7.53;71.34;98008.09;126030;1101;24376;-78
2021/05/01 02:43:00;;;;;;;25.15;16.10;;;;;;;7.57;71.21;98012.77;126114;1096;22819;-77
2021/05/01 02:45:28;;;;;;;25.25;16.45;;;;;;;7.62;71.49;98008.55;126141;1101;22820;-78
2021/05/01 02:47:55;;;;;;;22.67;16.20;;;;;;;7.65;71.30;97998.06;126090;1101;24375;-78
2021/05/01 02:50:22;;;;;;;26.80;16.40;;;;;;;7.65;70.67;97983.67;126046;1096;26282;-78
2021/05/01 02:52:49;;;;;;;33.87;18.93;;;;;;;7.62;70.93;97973.33;125801;1096;26350;-78
2021/05/01 02:55:17;;;;;;;25.27;16.97;;;;;;;7.58;70.84;97970.27;126063;1095;27154;-77
2021/05/01 02:57:44;;;;;;;24.20;17.25;;;;;;;7.56;71.59;97986.76;126080;1101;22799;-77
2021/05/01 03:00:15;;;;;;;25.25;17.75;;;;;;;7.54;72.04;97996.17;126061;1101;22920;-78
2021/05/01 03:02:43;;;;;;;22.55;16.15;;;;;;;7.52;71.96;97992.88;126090;1101;22758;-78
2021/05/01 03:05:12;;;;;;;23.80;16.75;;;;;;;7.53;71.58;97991.83;126164;1101;24132;-78
2021/05/01 03:07:40;;;;;;;25.65;17.60;;;;;;;7.52;71.78;97963.89;126094;1101;22719;-78
2021/05/01 03:10:11;;;;;;;23.73;15.93;;;;;;;7.55;71.71;97989.70;126079;1101;24409;-78
2021/05/01 03:12:38;;;;;;;29.55;16.90;;;;;;;7.52;72.01;97985.56;126090;1096;26210;-78
2021/05/01 03:15:07;;;;;;;24.33;17.77;;;;;;;7.52;72.06;98009.13;126068;1101;22768;-78
2021/05/01 03:17:34;;;;;;;22.50;17.15;;;;;;;7.51;71.50;98008.31;126079;1101;22744;-78
2021/05/01 03:20:02;;;;;;;24.80;16.60;;;;;;;7.54;71.95;98012.42;126034;1101;22742;-78
2021/05/01 03:22:30;;;;;;;29.20;16.93;;;;;;;7.57;72.08;98010.06;126132;1096;26207;-78
2021/05/01 03:24:57;;;;;;;24.17;15.83;;;;;;;7.59;71.96;98007.13;126095;1096;22802;-78
2021/05/01 03:27:24;;;;;;;20.47;15.77;;;;;;;7.63;72.28;98015.61;126094;1101;22858;-78
2021/05/01 03:29:51;;;;;;;24.05;17.25;;;;;;;7.62;72.16;98013.97;126101;1096;27353;-78
2021/05/01 03:32:18;;;;;;;24.45;15.50;;;;;;;7.64;72.41;98003.72;126036;1101;22794;-78
2021/05/01 03:34:45;;;;;;;25.37;17.30;;;;;;;7.59;72.22;97990.87;126084;1101;22910;-78
2021/05/01 03:37:12;;;;;;;23.57;16.00;;;;;;;7.58;72.37;97992.77;126095;1101;22756;-78
2021/05/01 03:39:40;;;;;;;26.80;19.10;;;;;;;7.54;72.20;97988.89;126006;1101;22745;-78
2021/05/01 03:42:07;;;;;;;24.87;17.10;;;;;;;7.55;73.06;97987.81;126039;1101;22761;-78
2021/05/01 03:44:35;;;;;;;23.90;16.40;;;;;;;7.56;72.80;97978.63;126086;1101;22778;-78
2021/05/01 03:47:02;;;;;;;24.10;16.73;;;;;;;7.54;72.92;97978.05;126060;1101;22769;-78
2021/05/01 03:49:29;;;;;;;23.45;16.15;;;;;;;7.54;73.44;97978.05;126118;1096;22761;-78
2021/05/01 03:51:56;;;;;;;19.93;14.20;;;;;;;7.51;73.63;97983.12;126072;1101;22758;-78
2021/05/01 03:54:23;;;;;;;21.20;15.35;;;;;;;7.44;73.50;97991.36;125839;1096;27340;-78
2021/05/01 03:56:51;;;;;;;25.35;17.20;;;;;;;7.39;74.46;97985.83;126128;1101;22745;-78
2021/05/01 03:59:18;;;;;;;23.40;16.80;;;;;;;7.40;74.01;97982.88;126057;1101;22799;-78
2021/05/01 04:01:45;;;;;;;28.67;17.97;;;;;;;7.42;74.27;97979.94;126059;1101;22762;-78
2021/05/01 04:04:12;;;;;;;27.03;17.87;;;;;;;7.44;74.27;97980.52;125830;1103;22768;-78
2021/05/01 04:06:39;;;;;;;24.30;15.93;;;;;;;7.42;75.41;97979.94;126072;1101;24422;-78
2021/05/01 04:09:07;;;;;;;24.75;16.50;;;;;;;7.35;74.71;97987.36;125810;1103;22747;-78
2021/05/01 04:11:35;;;;;;;27.10;17.50;;;;;;;7.25;75.14;97990.64;126065;1095;27151;-78
2021/05/01 04:14:02;;;;;;;20.45;14.55;;;;;;;7.19;76.50;97989.70;126244;1096;22864;-78
2021/05/01 04:16:29;;;;;;;24.85;17.40;;;;;;;7.16;76.31;97995.58;126148;1096;26200;-78
2021/05/01 04:18:56;;;;;;;27.40;17.93;;;;;;;7.16;76.68;97992.88;126349;1101;24544;-79
2021/05/01 04:21:23;;;;;;;24.45;17.20;;;;;;;7.21;76.73;97993.00;126318;1096;27199;-79
2021/05/01 04:23:50;;;;;;;25.20;18.20;;;;;;;7.23;76.68;97992.77;125975;1102;22913;-78
2021/05/01 04:26:19;;;;;;;28.60;18.55;;;;;;;7.26;76.50;97986.89;125928;1101;22741;-78
2021/05/01 04:28:53;;;;;;;25.93;17.47;;;;;;;7.29;77.02;97985.58;126212;1096;26200;-79
2021/05/01 04:31:20;;;;;;;25.40;17.60;;;;;;;7.33;76.96;97986.75;126049;1096;22809;-79
2021/05/01 04:33:47;;;;;;;26.40;18.40;;;;;;;7.35;77.10;97992.78;125964;1101;22740;-79
2021/05/01 04:36:14;;;;;;;26.05;17.50;;;;;;;7.31;77.19;97983.45;125901;1101;22758;-79
2021/05/01 04:38:41;;;;;;;25.90;17.07;;;;;;;7.28;77.53;97986.63;126300;1101;22739;-79
2021/05/01 04:41:08;;;;;;;25.80;18.97;;;;;;;7.23;77.29;97990.06;126164;1101;22765;-79
2021/05/01 04:43:36;;;;;;;27.50;18.50;;;;;;;7.19;78.00;97997.02;126192;1101;22764;-79
2021/05/01 04:46:03;;;;;;;26.17;17.53;;;;;;;7.19;77.96;97994.31;125949;1103;22738;-79
2021/05/01 04:48:30;;;;;;;27.87;18.03;;;;;;;7.17;77.77;97996.40;126202;1096;27259;-78
2021/05/01 04:50:57;;;;;;;26.63;18.67;;;;;;;7.19;77.78;98005.14;126252;1096;22947;-78
2021/05/01 04:53:25;;;;;;;29.05;17.75;;;;;;;7.19;77.30;98002.44;126318;1101;23467;-79
2021/05/01 04:55:52;;;;;;;24.10;17.60;;;;;;;7.22;77.82;97996.52;126168;1096;25941;-79
2021/05/01 04:58:19;;;;;;;28.20;16.97;;;;;;;7.22;78.10;97997.38;126085;1096;26296;-79
2021/05/01 05:00:46;;;;;;;27.00;17.53;;;;;;;7.21;77.76;98009.25;125996;1095;27154;-79
2021/05/01 05:03:13;;;;;;;23.20;17.20;;;;;;;7.17;77.90;98002.66;126215;1101;24550;-79
2021/05/01 05:05:41;;;;;;;26.47;18.10;;;;;;;7.17;78.16;97994.54;126014;1101;22939;-79
2021/05/01 05:08:08;;;;;;;26.00;17.65;;;;;;;7.15;78.62;97991.25;125937;1101;22764;-79
2021/05/01 05:10:35;;;;;;;26.40;18.60;;;;;;;7.15;78.84;97987.69;126075;1101;22765;-79
2021/05/01 05:13:02;;;;;;;25.55;16.55;;;;;;;7.14;78.48;97989.58;126023;1101;22764;-79
2021/05/01 05:15:29;;;;;;;24.55;16.60;;;;;;;7.13;78.50;97996.05;126299;1101;22809;-78
2021/05/01 05:17:56;;;;;;;25.25;17.90;;;;;;;7.12;79.34;97980.03;126416;1096;26356;-79
2021/05/01 05:20:23;;;;;;;28.10;17.85;;;;;;;7.10;79.09;97982.16;126206;1101;22794;-79
2021/05/01 05:22:51;;;;;;;28.90;18.30;;;;;;;7.08;78.93;97984.27;126120;1101;22747;-79
2021/05/01 05:25:18;;;;;;;28.70;19.10;;;;;;;7.06;78.89;97981.80;126286;1101;22806;-79
2021/05/01 05:27:45;;;;;;;26.83;17.43;;;;;;;7.07;79.69;97982.64;125937;1101;22750;-79
2021/05/01 05:30:13;;;;;;;24.20;16.43;;;;;;;7.06;79.46;97970.97;126008;1101;22770;-78
2021/05/01 05:32:41;;;;;;;26.20;18.30;;;;;;;7.06;79.80;97970.97;126255;1101;22868;-78
2021/05/01 05:35:09;;;;;;;27.50;19.83;;;;;;;7.10;80.01;97971.32;126358;1096;26238;-78
2021/05/01 05:37:36;;;;;;;25.03;17.43;;;;;;;7.09;79.87;97981.34;126241;1101;22914;-78
2021/05/01 05:40:05;;;;;;;24.10;17.47;;;;;;;7.13;80.25;97981.69;126052;1096;23520;-78
2021/05/01 05:42:32;;;;;;;25.30;17.17;;;;;;;7.18;80.00;97970.98;126103;1096;27388;-78
2021/05/01 05:44:59;;;;;;;32.60;17.25;;;;;;;7.23;80.03;97980.05;126070;1096;22763;-78
2021/05/01 05:47:26;;;;;;;28.40;18.45;;;;;;;7.24;79.75;97983.56;126004;1102;22761;-78
2021/05/01 05:49:53;;;;;;;28.70;18.83;;;;;;;7.27;79.67;97982.29;125925;1096;27125;-78
2021/05/01 05:52:20;;;;;;;26.25;17.35;;;;;;;7.33;80.11;97982.18;126044;1102;22751;-78
2021/05/01 05:54:47;;;;;;;22.53;15.93;;;;;;;7.39;80.35;97964.16;125961;1096;27153;-78
2021/05/01 05:57:15;;;;;;;27.07;18.80;;;;;;;7.40;80.23;97954.95;126155;1101;24646;-78
2021/05/01 05:59:43;;;;;;;24.60;16.95;;;;;;;7.43;80.51;97957.19;126275;1101;24356;-78
2021/05/01 06:02:14;;;;;;;27.03;17.57;;;;;;;7.43;80.76;97962.61;126438;1101;24393;-78
2021/05/01 06:04:54;;;;;;;27.55;17.90;;;;;;;7.42;80.11;97974.52;126391;1101;23297;-78
2021/05/01 06:07:33;;;;;;;26.30;16.67;;;;;;;7.46;79.88;97991.13;126349;1101;22728;-78
2021/05/01 06:10:04;;;;;;;26.58;16.78;;;;;;;7.55;80.18;97997.83;126202;1101;22958;-79
2021/05/01 06:12:33;;;;;;;24.85;17.95;;;;;;;7.63;80.38;97983.90;125882;1096;22731;-78
2021/05/01 06:15:07;;;;;;;25.60;16.95;;;;;;;7.69;79.87;97979.44;126195;1096;25829;-78
2021/05/01 06:17:35;;;;;;;24.75;16.70;;;;;;;7.77;80.12;97977.19;126337;1101;22801;-78
2021/05/01 06:20:09;;;;;;;24.20;17.40;;;;;;;7.82;79.60;97983.77;125993;1102;22751;-78
2021/05/01 06:22:37;;;;;;;25.43;16.43;;;;;;;7.86;79.50;97979.51;126358;1095;27119;-78
2021/05/01 06:25:06;;;;;;;25.00;18.30;;;;;;;7.92;79.75;97976.67;126139;1096;27109;-78
2021/05/01 06:27:34;;;;;;;;;;;;;;;7.99;79.40;97980.06;126326;1101;22796;-78
2021/05/01 06:30:05;;;;;;;21.97;14.80;;;;;;;8.03;79.71;97979.59;126004;1102;21458;-78
2021/05/01 06:32:32;;;;;;;23.57;17.10;;;;;;;8.01;80.10;97974.41;126151;1096;25970;-78
2021/05/01 06:35:01;;;;;;;25.30;16.50;;;;;;;7.99;79.53;97955.66;125995;1101;22755;-78
2021/05/01 06:37:29;;;;;;;25.20;17.18;;;;;;;8.02;79.31;97946.24;126310;1101;22709;-79
2021/05/01 06:40:05;;;;;;;25.63;17.30;;;;;;;8.07;79.12;97951.73;126189;1096;22730;-79
2021/05/01 06:42:35;;;;;;;28.55;17.85;;;;;;;8.09;78.93;97955.06;126255;1096;22738;-79
2021/05/01 06:45:12;;;;;;;28.25;19.30;;;;;;;8.09;79.03;97962.34;126255;1101;22825;-79
2021/05/01 06:48:05;;;;;;;27.20;19.37;;;;;;;8.14;79.44;97954.31;126365;1101;22787;-79
2021/05/01 06:50:33;;;;;;;23.25;17.30;;;;;;;8.26;80.02;97959.70;126186;1101;24545;-79
2021/05/01 06:53:02;;;;;;;25.38;18.25;;;;;;;8.36;79.89;97959.90;126271;1101;23396;-78
2021/05/01 06:55:33;;;;;;;25.20;17.90;;;;;;;8.45;80.04;97966.61;126292;1101;23027;-78
2021/05/01 06:58:04;;;;;;;28.20;19.03;;;;;;;8.48;79.98;97978.85;126166;1101;22824;-78
2021/05/01 07:00:31;;;;;;;25.60;18.03;;;;;;;8.52;79.81;97966.47;126152;1102;23401;-78
2021/05/01 07:03:05;;;;;;;22.40;16.23;;;;;;;8.51;79.12;97946.63;126163;1096;25816;-78
2021/05/01 07:05:34;;;;;;;26.43;19.67;;;;;;;8.52;79.27;97952.89;126078;1101;22793;-79
2021/05/01 07:08:02;;;;;;;25.33;17.90;;;;;;;8.58;79.76;97960.05;126007;1102;22751;-78
2021/05/01 07:10:29;;;;;;;26.40;17.95;;;;;;;8.64;79.58;97964.52;125953;1096;23262;-78
2021/05/01 07:12:59;;;;;;;26.90;19.20;;;;;;;8.69;79.30;97970.03;125905;1102;22813;-78
2021/05/01 07:15:26;;;;;;;25.10;17.80;;;;;;;8.75;79.01;97962.80;126262;1096;26187;-78
2021/05/01 07:17:54;;;;;;;23.50;17.30;;;;;;;8.83;79.07;97965.09;125932;1102;22738;-78
2021/05/01 07:20:22;;;;;;;25.20;17.77;;;;;;;8.87;78.47;97965.41;125914;1101;22903;-78
2021/05/01 07:22:51;;;;;;;29.00;19.33;;;;;;;8.87;78.70;97971.69;126297;1101;24888;-78
2021/05/01 07:25:19;;;;;;;27.23;18.37;;;;;;;8.81;78.20;97967.23;126055;1102;22728;-78
2021/05/01 07:27:52;;;;;;;26.35;17.60;;;;;;;8.83;79.21;97977.84;126351;1101;24146;-79
2021/05/01 07:30:26;;;;;;;27.07;17.67;;;;;;;8.86;78.51;97955.64;126196;1101;23477;-79
2021/05/01 07:33:01;;;;;;;24.65;18.10;;;;;;;8.88;78.34;97953.50;126129;1101;24122;-78
2021/05/01 07:35:31;;;;;;;26.25;18.80;;;;;;;8.89;77.89;97960.59;126093;1101;22923;-78
2021/05/01 07:38:07;;;;;;;26.97;19.03;;;;;;;8.97;78.53;97951.20;126178;1096;22731;-78
2021/05/01 07:40:34;;;;;;;27.43;19.63;;;;;;;9.10;79.07;97969.86;126114;1096;22796;-79
2021/05/01 07:43:03;;;;;;;22.70;16.95;;;;;;;9.22;78.14;97986.08;125871;1101;22764;-78
2021/05/01 07:45:30;;;;;;;27.85;19.18;;;;;;;9.34;77.93;97997.69;126103;1101;22833;-79
2021/05/01 07:47:58;;;;;;;28.10;19.50;;;;;;;9.39;76.87;97994.23;126116;1101;22764;-79
2021/05/01 07:50:26;;;;;;;27.90;19.30;;;;;;;9.41;77.42;98005.67;126137;1101;24436;-79
2021/05/01 07:52:55;;;;;;;27.00;19.75;;;;;;;9.38;77.25;98000.73;125855;1101;23653;-79
2021/05/01 07:55:23;;;;;;;27.53;19.48;;;;;;;9.37;77.07;98002.63;126062;1096;27147;-79
2021/05/01 07:57:51;;;;;;;25.48;18.00;;;;;;;9.36;76.64;97992.81;126106;1101;24402;-79
2021/05/01 08:00:20;;;;;;;23.65;17.15;;;;;;;9.36;76.65;97987.38;126146;1096;26234;-79
2021/05/01 08:02:50;;;;;;;26.57;18.63;;;;;;;9.37;76.53;97975.45;126160;1101;22758;-79
2021/05/01 08:05:19;;;;;;;26.25;18.15;;;;;;;9.40;76.54;97972.25;126085;1101;22751;-79
2021/05/01 08:07:48;;;;;;;28.15;19.55;;;;;;;9.43;77.65;97979.06;126137;1101;22822;-79
2021/05/01 08:10:16;;;;;;;29.80;20.30;;;;;;;9.46;77.13;97982.11;126164;1101;22758;-79
2021/05/01 08:12:43;;;;;;;28.95;20.10;;;;;;;9.54;77.63;97991.72;126055;1101;22766;-79
2021/05/01 08:15:11;;;;;;;27.80;18.60;;;;;;;9.58;77.29;97986.61;126138;1101;22744;-79
2021/05/01 08:17:40;;;;;;;24.80;18.20;;;;;;;9.63;76.60;97982.09;125860;1101;22800;-79
2021/05/01 08:20:08;;;;;;;25.47;19.13;;;;;;;9.63;76.21;97982.09;125871;1096;25877;-78
2021/05/01 08:22:39;;;;;;;29.33;20.13;;;;;;;9.62;75.97;97985.05;125862;1096;26207;-78
2021/05/01 08:25:09;;;;;;;28.20;21.00;;;;;;;9.62;76.14;97980.43;126074;1096;27351;-78
2021/05/01 08:27:39;;;;;;;;;;;;;;;9.70;76.05;97973.73;126114;1101;22730;-78
2021/05/01 08:30:10;;;;;;;27.73;19.83;;;;;;;9.77;76.56;97965.39;126113;1096;24189;-78
2021/05/01 08:32:41;;;;;;;30.60;20.40;;;;;;;9.86;77.22;97970.16;126045;1101;22806;-78
2021/05/01 08:35:14;;;;;;;28.47;20.00;;;;;;;9.94;76.88;97970.79;126052;1101;24415;-79
2021/05/01 08:37:42;;;;;;;30.20;20.70;;;;;;;10.08;76.37;97972.05;126119;1101;24398;-79
2021/05/01 08:40:12;;;;;;;26.50;20.20;;;;;;;10.18;76.24;97971.33;125906;1101;22752;-79
2021/05/01 08:42:45;;;;;;;28.25;21.25;;;;;;;10.29;76.28;97975.83;125860;1101;22903;-78
2021/05/01 08:45:13;;;;;;;;;;;;;;;10.36;74.70;97989.28;126170;1096;26241;-78
2021/05/01 08:47:46;;;;;;;29.70;21.00;;;;;;;10.30;74.65;97999.23;126053;1101;24247;-79
2021/05/01 08:50:39;;;;;;;27.85;19.20;;;;;;;10.31;75.07;97986.47;126123;1102;24390;-79
2021/05/01 08:53:07;;;;;;;27.30;20.30;;;;;;;10.32;74.26;97999.83;126054;1101;22799;-78
2021/05/01 08:55:38;;;;;;;28.43;20.87;;;;;;;10.37;74.44;98004.52;126130;1101;22742;-78
2021/05/01 08:58:08;;;;;;;28.65;20.75;;;;;;;10.38;74.63;97998.02;126096;1101;22817;-78
2021/05/01 09:00:40;;;;;;;26.53;18.87;;;;;;;10.38;73.75;98000.73;126114;1101;22734;-78
2021/05/01 09:03:19;;;;;;;28.20;20.33;;;;;;;10.28;74.39;97998.67;126116;1096;25973;-78
2021/05/01 09:05:49;;;;;;;32.30;22.70;;;;;;;10.27;74.68;97999.77;126085;1101;22751;-78
2021/05/01 09:08:18;;;;;;;22.80;16.40;;;;;;;10.29;73.74;98010.37;126132;1101;22761;-79
2021/05/01 09:10:54;;;;;;;31.53;20.63;;;;;;;10.25;74.91;98012.77;126059;1101;22765;-78
2021/05/01 09:13:28;;;;;;;31.65;20.90;;;;;;;10.31;74.74;98017.25;126255;1101;22759;-78
2021/05/01 09:16:08;;;;;;;27.60;20.55;;;;;;;10.38;74.50;98015.16;126510;1096;22778;-78
2021/05/01 09:18:56;;;;;;;32.95;22.00;;;;;;;10.43;74.64;98017.13;126219;1101;22767;-78
2021/05/01 09:21:30;;;;;;;33.35;22.45;;;;;;;10.48;74.64;98016.34;126226;1101;22735;-78
2021/05/01 09:23:58;;;;;;;31.40;22.30;;;;;;;10.50;74.53;98008.73;126329;1095;27249;-78
2021/05/01 09:26:44;;;;;;;30.90;22.05;;;;;;;10.52;74.59;98012.86;125967;1096;25074;-79
2021/05/01 09:29:28;;;;;;;32.50;21.20;;;;;;;10.55;74.80;98015.09;126374;1101;22765;-79
2021/05/01 09:31:55;;;;;;;27.90;20.55;;;;;;;10.64;74.38;98005.38;126518;1096;22819;-78
2021/05/01 09:34:37;;;;;;;31.27;21.33;;;;;;;10.72;74.59;98011.44;126386;1096;24575;-78
2021/05/01 09:37:09;;;;;;;30.83;21.47;;;;;;;10.78;73.81;98003.06;126348;1095;26232;-79
2021/05/01 09:39:58;;;;;;;32.57;22.67;;;;;;;10.85;73.63;98008.28;126220;1096;22939;-78
2021/05/01 09:42:33;;;;;;;32.25;23.20;;;;;;;10.92;73.46;98006.16;126277;1101;22922;-78
2021/05/01 09:45:21;;;;;;;34.63;23.83;;;;;;;10.98;73.38;98005.15;126276;1101;22719;-78
2021/05/01 09:47:50;;;;;;;32.65;23.00;;;;;;;11.07;73.65;98008.22;126276;1101;22904;-78
2021/05/01 09:50:20;;;;;;;29.83;22.43;;;;;;;11.15;73.03;98007.73;126463;1096;25980;-78
2021/05/01 09:53:08;;;;;;;31.65;22.40;;;;;;;11.19;72.56;98014.33;126535;1101;22832;-79
2021/05/01 09:55:54;;;;;;;33.17;24.27;;;;;;;11.26;73.41;98010.55;126448;1096;22788;-78
2021/05/01 09:58:23;;;;;;;35.25;24.20;;;;;;;11.30;73.68;98009.77;126310;1101;22819;-79
2021/05/01 10:00:52;;;;;;;35.35;25.90;;;;;;;11.35;73.20;98008.97;126298;1101;22741;-79
2021/05/01 10:03:21;;;;;;;32.63;23.15;;;;;;;11.36;72.36;98000.53;126324;1101;22803;-79
2021/05/01 10:05:50;;;;;;;32.68;23.23;;;;;;;11.39;72.13;98001.94;126336;1096;25977;-79
2021/05/01 10:08:20;;;;;;;34.88;24.43;;;;;;;11.47;72.50;98004.16;126474;1096;22911;-79
2021/05/01 10:10:50;;;;;;;32.27;23.17;;;;;;;11.59;72.30;97990.34;126420;1096;24743;-79
2021/05/01 10:13:18;;;;;;;35.65;25.13;;;;;;;11.68;72.99;97987.94;126476;1096;22913;-79
2021/05/01 10:15:46;;;;;;;34.70;24.20;;;;;;;11.85;72.08;97985.85;126560;1101;22907;-79
2021/05/01 10:18:20;;;;;;;31.90;23.10;;;;;;;11.99;71.03;97966.28;126574;1096;27205;-79
2021/05/01 10:20:50;;;;;;;32.55;22.50;;;;;;;12.13;72.36;97964.73;126483;1094;26251;-79
2021/05/01 10:23:20;;;;;;;29.10;22.15;;;;;;;12.33;71.32;97951.13;126482;1101;23336;-79
2021/05/01 10:25:48;;;;;;;28.90;22.05;;;;;;;12.47;69.55;97951.44;126676;1096;26034;-79
2021/05/01 10:28:20;;;;;;;24.87;19.83;;;;;;;12.51;70.06;97952.53;126585;1096;25861;-79
2021/05/01 10:30:56;;;;;;;30.90;22.90;;;;;;;12.66;70.34;97951.76;126485;1097;22629;-79
2021/05/01 10:33:33;;;;;;;25.40;20.40;;;;;;;12.96;69.96;97957.50;126164;1101;22738;-79
2021/05/01 10:36:27;;;;;;;30.85;22.10;;;;;;;13.05;69.30;97956.70;126134;1102;22738;-79
2021/05/01 10:39:01;;;;;;;27.00;19.85;;;;;;;13.01;68.21;97955.59;126081;1103;22802;-79
2021/05/01 10:41:32;;;;;;;35.40;24.73;;;;;;;13.02;69.47;97949.04;126372;1101;22764;-79
2021/05/01 10:44:01;;;;;;;25.70;19.30;;;;;;;13.05;68.45;97953.13;126274;1101;23628;-79
2021/05/01 10:46:29;;;;;;;;;;;;;;;12.98;68.63;97947.95;126421;1101;24253;-79
2021/05/01 10:49:08;;;;;;;31.50;23.20;;;;;;;13.00;69.01;97950.42;126129;1102;21551;-79
2021/05/01 10:51:46;;;;;;;33.70;21.40;;;;;;;13.10;69.05;97953.13;126145;1101;24449;-79
2021/05/01 10:54:20;;;;;;;31.20;23.00;;;;;;;13.27;69.20;97950.13;126120;1101;23494;-79
2021/05/01 10:56:50;;;;;;;35.60;25.00;;;;;;;13.48;68.98;97954.49;125845;1097;27147;-79
2021/05/01 10:59:20;;;;;;;31.20;23.87;;;;;;;13.71;69.37;97946.79;125937;1102;22917;-79
2021/05/01 11:01:50;;;;;;;30.73;23.80;;;;;;;13.86;67.83;97941.27;126230;1101;24428;-79
2021/05/01 11:04:25;;;;;;;29.10;21.70;;;;;;;14.00;66.79;97941.47;125905;1096;22744;-79
2021/05/01 11:07:17;;;;;;;31.53;23.10;;;;;;;14.03;66.62;97949.13;126101;1101;22771;-79
2021/05/01 11:09:46;;;;;;;26.30;20.03;;;;;;;13.96;66.20;97948.62;125839;1101;24449;-79
2021/05/01 11:12:18;;;;;;;33.60;23.40;;;;;;;13.86;65.79;97949.48;125871;1096;26210;-79
2021/05/01 11:14:47;;;;;;;31.05;21.70;;;;;;;13.88;67.02;97937.42;126098;1101;22775;-79
2021/05/01 11:17:36;;;;;;;26.57;19.47;;;;;;;13.85;65.15;97933.34;125905;1102;22815;-79
2021/05/01 11:20:10;;;;;;;31.85;23.05;;;;;;;13.63;66.36;97945.45;126182;1096;22771;-79
2021/05/01 11:22:43;;;;;;;30.45;23.10;;;;;;;13.61;67.06;97947.63;125847;1101;22744;-79
2021/05/01 11:25:15;;;;;;;32.25;22.85;;;;;;;13.62;67.35;97954.74;125824;1102;22771;-79
2021/05/01 11:27:45;;;;;;;28.85;20.75;;;;;;;13.60;67.18;97961.61;125854;1102;24405;-79